Terminal Aerodrome Forecast
Issued by NWS Cleveland, OH

Home | Current Version | Previous Version | Text Only | Print | Product List | Glossary On
Versions: 1 2 3 4 5 6 7 8 9 10 11 12 13 14 15 16 17 18 19
000
FTUS41 KCLE 232330
TAFMFD
TAF
KMFD 232330Z 2400/2424 29005KT 1SM -TSRA BKN020CB BKN090
     FM240100 28004KT P6SM VCTS SCT021CB BKN200
     FM240400 27004KT P6SM FEW029 SCT250
     FM240600 26005KT 3SM BR FEW045
     FM241300 28006KT P6SM SCT035
     FM241500 33009KT P6SM BKN035=

USA.gov is the U.S. government's official web portal to all federal, state and local government web resources and services.